Wetterdaten: Woche 27.08.01 - 02.09.01 (KW35)
Datum Zeit Temperatur Luftfeuchte Luftdruck Regenmenge Wind Richtung Taupunkt Windchill
27.08.2001 00:00 17.3 C 86 % 1008.8 hPa 0.0 l/m 2.1 km/h (1 Bft) O 14.9 C 17.3 C
27.08.2001 01:00 16.5 C 88 % 1008.8 hPa 0.0 l/m 1.9 km/h (1 Bft) O 14.5 C 16.5 C
27.08.2001 02:00 15.8 C 90 % 1008.5 hPa 0.0 l/m 0.6 km/h (0 Bft) O 14.2 C 15.8 C
27.08.2001 03:00 15.6 C 91 % 1007.9 hPa 0.0 l/m 2.3 km/h (1 Bft) O-SO 14.2 C 15.6 C
27.08.2001 04:00 14.9 C 92 % 1007.8 hPa 0.0 l/m 0.0 km/h (0 Bft) N 13.6 C 14.9 C
27.08.2001 05:00 14.6 C 93 % 1007.8 hPa 0.0 l/m 0.0 km/h (0 Bft) N 13.5 C 14.6 C
27.08.2001 06:00 14.5 C 93 % 1007.8 hPa 0.0 l/m 0.2 km/h (0 Bft) O 13.4 C 14.5 C
27.08.2001 07:00 15.4 C 94 % 1007.8 hPa 0.0 l/m 0.4 km/h (0 Bft) O 14.4 C 15.4 C
27.08.2001 08:00 16.9 C 88 % 1007.8 hPa 0.0 l/m 0.0 km/h (0 Bft) N 15.0 C 16.9 C
27.08.2001 09:00 19.7 C 78 % 1008.6 hPa 0.0 l/m 2.2 km/h (1 Bft) O-SO 15.8 C 19.7 C
27.08.2001 10:00 22.6 C 66 % 1008.8 hPa 0.0 l/m 4.3 km/h (1 Bft) O-SO 16.0 C 22.6 C
27.08.2001 11:00 25.3 C 58 % 1008.6 hPa 0.0 l/m 5.5 km/h (1 Bft) O-SO 16.3 C 25.3 C
27.08.2001 12:00 27.6 C 52 % 1008.1 hPa 0.0 l/m 6.5 km/h (2 Bft) W-NW 16.7 C 27.6 C
27.08.2001 13:00 28.8 C 45 % 1007.8 hPa 0.0 l/m 17.9 km/h (3 Bft) W-NW 15.7 C 28.8 C
27.08.2001 14:00 29.9 C 42 % 1007.6 hPa 0.0 l/m 17.9 km/h (3 Bft) W-NW 15.5 C 29.9 C
27.08.2001 15:00 31.0 C 38 % 1006.7 hPa 0.0 l/m 19.5 km/h (3 Bft) W-NW 14.8 C 31.0 C
27.08.2001 16:00 29.1 C 46 % 1006.7 hPa 0.0 l/m 10.6 km/h (2 Bft) W-NW 16.4 C 29.1 C
27.08.2001 17:00 26.3 C 49 % 1006.7 hPa 0.0 l/m 2.3 km/h (1 Bft) W-NW 14.5 C 26.3 C
27.08.2001 18:00 24.5 C 56 % 1006.9 hPa 0.0 l/m 0.1 km/h (0 Bft) SO 15.1 C 24.5 C
27.08.2001 19:00 23.4 C 58 % 1007.8 hPa 0.0 l/m 0.6 km/h (0 Bft) NW 14.7 C 23.4 C
27.08.2001 20:00 22.7 C 60 % 1008.5 hPa 0.0 l/m 1.5 km/h (1 Bft) O-NO 14.5 C 22.7 C
27.08.2001 21:00 21.0 C 69 % 1008.5 hPa 0.0 l/m 3.0 km/h (1 Bft) O-SO 15.1 C 21.0 C
27.08.2001 22:00 19.7 C 77 % 1009.3 hPa 0.0 l/m 1.3 km/h (1 Bft) O-SO 15.5 C 19.7 C
27.08.2001 23:00 20.2 C 75 % 1009.9 hPa 0.0 l/m 0.4 km/h (0 Bft) O 15.6 C 20.2 C
28.08.2001 00:00 20.7 C 70 % 1009.9 hPa 0.0 l/m 0.6 km/h (0 Bft) N-NO 15.1 C 20.7 C
28.08.2001 01:00 20.2 C 70 % 1009.9 hPa 0.0 l/m 0.0 km/h (0 Bft) N 14.5 C 20.2 C
28.08.2001 02:00 19.6 C 70 % 1009.9 hPa 0.0 l/m 1.1 km/h (1 Bft) O 14.1 C 19.6 C
28.08.2001 03:00 18.8 C 71 % 1009.9 hPa 0.0 l/m 0.0 km/h (0 Bft) N 13.4 C 18.8 C
28.08.2001 04:00 18.6 C 70 % 1009.5 hPa 0.0 l/m 0.1 km/h (0 Bft) N 13.0 C 18.6 C
28.08.2001 05:00 17.2 C 73 % 1008.8 hPa 0.0 l/m 0.0 km/h (0 Bft) N 12.4 C 17.2 C
28.08.2001 06:00 17.0 C 74 % 1008.8 hPa 0.0 l/m 0.0 km/h (0 Bft) N 12.4 C 17.0 C
28.08.2001 07:00 17.5 C 72 % 1008.8 hPa 0.0 l/m 0.1 km/h (0 Bft) N 12.4 C 17.5 C
28.08.2001 08:00 17.8 C 71 % 1008.8 hPa 0.0 l/m 0.7 km/h (0 Bft) O-SO 12.5 C 17.8 C
28.08.2001 09:00 18.6 C 68 % 1008.8 hPa 0.0 l/m 2.7 km/h (1 Bft) O-NO 12.6 C 18.6 C
28.08.2001 10:00 19.5 C 64 % 1009.0 hPa 0.0 l/m 5.4 km/h (1 Bft) O-SO 12.5 C 19.5 C
28.08.2001 11:00 21.0 C 60 % 1008.8 hPa 0.0 l/m 12.9 km/h (3 Bft) O-SO 12.8 C 21.0 C
28.08.2001 12:00 21.2 C 60 % 1008.8 hPa 0.0 l/m 14.9 km/h (3 Bft) O-SO 13.2 C 21.2 C
28.08.2001 13:00 22.6 C 57 % 1008.8 hPa 0.0 l/m 9.8 km/h (2 Bft) O-SO 13.7 C 22.6 C
28.08.2001 14:00 23.8 C 54 % 1007.8 hPa 0.0 l/m 11.8 km/h (2 Bft) O-SO 14.0 C 23.8 C
28.08.2001 15:00 24.9 C 52 % 1007.2 hPa 0.0 l/m 11.6 km/h (2 Bft) O-SO 14.3 C 24.9 C
28.08.2001 16:00 25.4 C 50 % 1006.7 hPa 0.0 l/m 8.4 km/h (2 Bft) O-SO 14.1 C 25.4 C
28.08.2001 17:00 25.1 C 51 % 1006.6 hPa 0.0 l/m 5.2 km/h (1 Bft) O-SO 14.3 C 25.1 C
28.08.2001 18:00 24.4 C 54 % 1005.8 hPa 0.0 l/m 5.5 km/h (1 Bft) O-SO 14.4 C 24.4 C
28.08.2001 19:00 22.6 C 62 % 1005.7 hPa 0.0 l/m 5.1 km/h (1 Bft) O-SO 14.8 C 22.6 C
28.08.2001 20:00 20.6 C 69 % 1005.7 hPa 0.0 l/m 5.8 km/h (2 Bft) O-SO 14.8 C 20.6 C
28.08.2001 21:00 18.4 C 78 % 1006.7 hPa 0.0 l/m 2.4 km/h (1 Bft) O 14.5 C 18.4 C
28.08.2001 22:00 16.9 C 85 % 1006.7 hPa 0.0 l/m 0.0 km/h (0 Bft) N 14.3 C 16.9 C
28.08.2001 23:00 15.9 C 88 % 1006.7 hPa 0.0 l/m 0.0 km/h (0 Bft) N 13.9 C 15.9 C
29.08.2001 00:00 15.2 C 91 % 1006.7 hPa 0.0 l/m 1.9 km/h (1 Bft) O 13.7 C 15.2 C
29.08.2001 01:00 14.3 C 92 % 1006.3 hPa 0.0 l/m 0.2 km/h (0 Bft) N 12.9 C 14.3 C
29.08.2001 02:00 14.1 C 93 % 1005.7 hPa 0.0 l/m 0.0 km/h (0 Bft) N 13.0 C 14.1 C
29.08.2001 03:00 13.8 C 85 % 1005.7 hPa 0.0 l/m 0.1 km/h (0 Bft) N 11.2 C 13.8 C
29.08.2001 04:00 13.3 C 81 % 1005.7 hPa 0.0 l/m 0.2 km/h (0 Bft) N-NO 10.1 C 13.3 C
29.08.2001 05:00 12.8 C 79 % 1005.7 hPa 0.0 l/m 0.0 km/h (0 Bft) N 9.3 C 12.8 C
29.08.2001 06:00 11.9 C 82 % 1005.7 hPa 0.0 l/m 0.0 km/h (0 Bft) N 9.0 C 11.9 C
29.08.2001 07:00 11.5 C 85 % 1006.3 hPa 0.0 l/m 0.4 km/h (0 Bft) O 9.1 C 11.5 C
29.08.2001 08:00 13.7 C 71 % 1006.7 hPa 0.0 l/m 0.9 km/h (0 Bft) O-SO 8.5 C 13.7 C
29.08.2001 09:00 15.9 C 59 % 1006.7 hPa 0.0 l/m 5.1 km/h (1 Bft) O 7.8 C 15.9 C
29.08.2001 10:00 18.1 C 52 % 1006.7 hPa 0.0 l/m 6.4 km/h (2 Bft) O-SO 8.2 C 18.1 C
29.08.2001 11:00 20.4 C 50 % 1006.1 hPa 0.0 l/m 10.8 km/h (2 Bft) O-SO 9.7 C 20.4 C
29.08.2001 12:00 22.2 C 49 % 1005.6 hPa 0.0 l/m 14.5 km/h (3 Bft) O-SO 11.0 C 22.2 C
29.08.2001 13:00 23.6 C 48 % 1004.7 hPa 0.0 l/m 14.9 km/h (3 Bft) O-SO 11.9 C 23.6 C
29.08.2001 14:00 24.7 C 46 % 1004.3 hPa 0.0 l/m 15.4 km/h (3 Bft) O-SO 12.2 C 24.7 C
29.08.2001 15:00 26.0 C 43 % 1003.3 hPa 0.0 l/m 13.9 km/h (3 Bft) O-SO 12.3 C 26.0 C
29.08.2001 16:00 26.1 C 43 % 1002.6 hPa 0.0 l/m 14.7 km/h (3 Bft) O-SO 12.5 C 26.1 C
29.08.2001 17:00 25.5 C 44 % 1002.0 hPa 0.0 l/m 15.7 km/h (3 Bft) O-SO 12.4 C 25.5 C
29.08.2001 18:00 24.5 C 46 % 1001.6 hPa 0.0 l/m 14.4 km/h (3 Bft) O-SO 12.1 C 24.5 C
29.08.2001 19:00 22.9 C 51 % 1001.6 hPa 0.0 l/m 5.2 km/h (1 Bft) O-SO 12.1 C 22.9 C
29.08.2001 20:00 20.3 C 59 % 1001.6 hPa 0.0 l/m 0.1 km/h (0 Bft) O 12.1 C 20.3 C
29.08.2001 21:00 19.5 C 59 % 1001.6 hPa 0.0 l/m 0.3 km/h (0 Bft) O 11.4 C 19.5 C
29.08.2001 22:00 18.3 C 59 % 1001.6 hPa 0.0 l/m 0.8 km/h (0 Bft) O-SO 10.0 C 18.3 C
29.08.2001 23:00 17.1 C 64 % 1001.7 hPa 0.0 l/m 0.0 km/h (0 Bft) N 10.1 C 17.1 C
30.08.2001 00:00 15.6 C 70 % 1002.1 hPa 0.0 l/m 0.9 km/h (0 Bft) O-SO 10.1 C 15.6 C
30.08.2001 01:00 15.6 C 71 % 1001.6 hPa 0.0 l/m 2.5 km/h (1 Bft) O-SO 10.2 C 15.6 C
30.08.2001 02:00 15.3 C 73 % 1002.3 hPa 0.0 l/m 2.6 km/h (1 Bft) O-SO 10.6 C 15.3 C
30.08.2001 03:00 15.5 C 73 % 1002.9 hPa 0.0 l/m 2.7 km/h (1 Bft) O-SO 10.7 C 15.5 C
30.08.2001 04:00 14.5 C 84 % 1002.6 hPa 3.1 l/m 2.0 km/h (1 Bft) O-SO 11.7 C 14.5 C
30.08.2001 05:00 14.3 C 93 % 1002.6 hPa 0.9 l/m 0.4 km/h (0 Bft) O-SO 13.2 C 14.3 C
30.08.2001 06:00 14.6 C 96 % 1002.6 hPa 0.6 l/m 0.1 km/h (0 Bft) N 13.9 C 14.6 C
30.08.2001 07:00 14.6 C 96 % 1002.6 hPa 0.3 l/m 0.1 km/h (0 Bft) N 14.0 C 14.6 C
30.08.2001 08:00 14.7 C 96 % 1001.9 hPa 0.0 l/m 0.1 km/h (0 Bft) N 14.1 C 14.7 C
30.08.2001 09:00 15.3 C 95 % 1001.8 hPa 0.0 l/m 0.3 km/h (0 Bft) O 14.5 C 15.3 C
30.08.2001 10:00 16.6 C 92 % 1002.6 hPa 0.0 l/m 0.3 km/h (0 Bft) O-SO 15.3 C 16.6 C
30.08.2001 11:00 17.8 C 86 % 1002.5 hPa 0.0 l/m 1.1 km/h (1 Bft) W-NW 15.5 C 17.8 C
30.08.2001 12:00 19.4 C 82 % 1001.6 hPa 0.0 l/m 1.8 km/h (1 Bft) O-SO 16.2 C 19.4 C
30.08.2001 13:00 20.6 C 73 % 1001.6 hPa 0.0 l/m 3.0 km/h (1 Bft) W-NW 15.6 C 20.6 C
30.08.2001 14:00 21.2 C 67 % 1001.6 hPa 0.0 l/m 8.2 km/h (2 Bft) W-NW 14.7 C 21.2 C
30.08.2001 15:00 23.1 C 58 % 1000.8 hPa 0.0 l/m 3.8 km/h (1 Bft) W-NW 14.4 C 23.1 C
30.08.2001 16:00 21.7 C 67 % 1000.5 hPa 0.0 l/m 1.6 km/h (1 Bft) O-SO 15.2 C 21.7 C
30.08.2001 17:00 16.9 C 88 % 1001.3 hPa 22.8 l/m 8.3 km/h (2 Bft) O-SO 14.7 C 16.9 C
30.08.2001 18:00 16.8 C 95 % 1001.6 hPa 0.0 l/m 0.8 km/h (0 Bft) O-SO 16.0 C 16.8 C
30.08.2001 19:00 17.0 C 93 % 1001.9 hPa 0.6 l/m 5.9 km/h (2 Bft) W-NW 15.9 C 17.0 C
30.08.2001 20:00 16.6 C 90 % 1002.9 hPa 0.0 l/m 16.5 km/h (3 Bft) W-NW 14.9 C 16.6 C
30.08.2001 21:00 15.9 C 87 % 1003.6 hPa 0.0 l/m 17.4 km/h (3 Bft) W-NW 13.7 C 15.9 C
30.08.2001 22:00 15.5 C 86 % 1003.6 hPa 0.0 l/m 12.7 km/h (3 Bft) W-NW 13.2 C 15.5 C
30.08.2001 23:00 15.5 C 86 % 1003.6 hPa 0.0 l/m 13.7 km/h (3 Bft) W-NW 13.2 C 15.5 C
31.08.2001 00:00 15.4 C 87 % 1003.7 hPa 0.0 l/m 3.2 km/h (1 Bft) W 13.3 C 15.4 C
31.08.2001 01:00 15.2 C 87 % 1003.6 hPa 0.0 l/m 3.7 km/h (1 Bft) W-NW 13.0 C 15.2 C
31.08.2001 02:00 14.7 C 88 % 1003.7 hPa 0.0 l/m 0.9 km/h (0 Bft) W-SW 12.8 C 14.7 C
31.08.2001 03:00 14.1 C 89 % 1003.7 hPa 0.0 l/m 2.4 km/h (1 Bft) W-NW 12.3 C 14.1 C
31.08.2001 04:00 13.9 C 92 % 1003.6 hPa 0.0 l/m 1.1 km/h (1 Bft) O-SO 12.6 C 13.9 C
31.08.2001 05:00 13.8 C 91 % 1003.6 hPa 0.0 l/m 4.0 km/h (1 Bft) O-SO 12.4 C 13.8 C
31.08.2001 06:00 14.0 C 91 % 1003.6 hPa 0.0 l/m 0.1 km/h (0 Bft) O-SO 12.6 C 14.0 C
31.08.2001 07:00 14.2 C 91 % 1003.6 hPa 0.0 l/m 1.5 km/h (1 Bft) O-SO 12.7 C 14.2 C
31.08.2001 08:00 14.8 C 88 % 1003.6 hPa 0.0 l/m 1.3 km/h (1 Bft) O-SO 12.8 C 14.8 C
31.08.2001 09:00 15.9 C 81 % 1002.6 hPa 0.0 l/m 0.2 km/h (0 Bft) O 12.7 C 15.9 C
31.08.2001 10:00 16.3 C 80 % 1003.2 hPa 0.0 l/m 0.2 km/h (0 Bft) N 12.9 C 16.3 C
31.08.2001 11:00 16.1 C 82 % 1003.6 hPa 0.3 l/m 0.5 km/h (0 Bft) W 13.0 C 16.1 C
31.08.2001 12:00 16.3 C 84 % 1003.6 hPa 0.0 l/m 0.4 km/h (0 Bft) O-SO 13.6 C 16.3 C
31.08.2001 13:00 15.3 C 79 % 1003.6 hPa 0.0 l/m 16.1 km/h (3 Bft) W-NW 11.7 C 15.3 C
31.08.2001 14:00 15.7 C 76 % 1003.6 hPa 0.0 l/m 5.6 km/h (1 Bft) W-NW 11.4 C 15.7 C
31.08.2001 15:00 16.0 C 80 % 1003.6 hPa 0.0 l/m 4.1 km/h (1 Bft) O-SO 12.6 C 16.0 C
31.08.2001 16:00 16.5 C 81 % 1002.6 hPa 0.3 l/m 3.6 km/h (1 Bft) O-SO 13.3 C 16.5 C
31.08.2001 17:00 13.7 C 89 % 1003.6 hPa 2.2 l/m 4.7 km/h (1 Bft) O-SO 11.9 C 13.7 C
31.08.2001 18:00 13.6 C 91 % 1003.6 hPa 0.0 l/m 0.4 km/h (0 Bft) O-SO 12.1 C 13.6 C
31.08.2001 19:00 13.5 C 93 % 1003.6 hPa 0.0 l/m 0.6 km/h (0 Bft) SO 12.3 C 13.5 C
31.08.2001 20:00 13.0 C 93 % 1004.1 hPa 5.6 l/m 3.9 km/h (1 Bft) NW 11.9 C 13.0 C
31.08.2001 21:00 11.6 C 94 % 1004.7 hPa 0.3 l/m 3.8 km/h (1 Bft) O-SO 10.6 C 11.6 C
31.08.2001 22:00 11.2 C 95 % 1004.7 hPa 0.0 l/m 2.0 km/h (1 Bft) O-SO 10.4 C 11.2 C
31.08.2001 23:00 11.4 C 95 % 1004.7 hPa 0.3 l/m 0.7 km/h (0 Bft) O-SO 10.7 C 11.4 C
01.09.2001 00:00 11.6 C 96 % 1004.7 hPa 0.0 l/m 0.2 km/h (0 Bft) O-SO 11.0 C 11.6 C
01.09.2001 01:00 11.6 C 96 % 1004.9 hPa 0.0 l/m 0.2 km/h (0 Bft) SO 11.0 C 11.6 C
01.09.2001 02:00 11.7 C 96 % 1004.7 hPa 0.0 l/m 0.8 km/h (0 Bft) O-SO 11.1 C 11.7 C
01.09.2001 03:00 11.3 C 96 % 1005.6 hPa 0.0 l/m 0.1 km/h (0 Bft) W-NW 10.7 C 11.3 C
01.09.2001 04:00 11.1 C 96 % 1005.7 hPa 0.0 l/m 1.0 km/h (0 Bft) W 10.5 C 11.1 C
01.09.2001 05:00 11.2 C 96 % 1005.7 hPa 0.0 l/m 0.1 km/h (0 Bft) W 10.5 C 11.2 C
01.09.2001 06:00 11.2 C 94 % 1005.7 hPa 0.0 l/m 0.3 km/h (0 Bft) N 10.3 C 11.2 C
01.09.2001 07:00 10.9 C 95 % 1005.8 hPa 0.0 l/m 0.0 km/h (0 Bft) N 10.1 C 10.9 C
01.09.2001 08:00 11.7 C 92 % 1006.7 hPa 0.0 l/m 1.1 km/h (0 Bft) W 10.5 C 11.7 C
01.09.2001 09:00 12.4 C 90 % 1006.7 hPa 0.0 l/m 0.8 km/h (0 Bft) S 10.7 C 12.4 C
01.09.2001 10:00 13.1 C 86 % 1006.7 hPa 0.0 l/m 1.9 km/h (1 Bft) W 10.7 C 13.1 C
01.09.2001 11:00 14.6 C 78 % 1007.5 hPa 0.0 l/m 2.7 km/h (1 Bft) W-NW 10.8 C 14.6 C
01.09.2001 12:00 14.4 C 81 % 1007.8 hPa 0.0 l/m 4.6 km/h (1 Bft) W-NW 11.3 C 14.4 C
01.09.2001 13:00 15.7 C 74 % 1007.4 hPa 0.0 l/m 5.5 km/h (1 Bft) W-NW 11.1 C 15.7 C
01.09.2001 14:00 16.2 C 70 % 1006.7 hPa 0.0 l/m 6.2 km/h (2 Bft) W-NW 10.8 C 16.2 C
01.09.2001 15:00 16.0 C 70 % 1006.9 hPa 0.0 l/m 5.8 km/h (2 Bft) W-NW 10.6 C 16.0 C
01.09.2001 16:00 16.7 C 69 % 1007.8 hPa 0.0 l/m 1.8 km/h (1 Bft) O-SO 11.1 C 16.7 C
01.09.2001 17:00 14.2 C 85 % 1007.8 hPa 6.3 l/m 10.4 km/h (2 Bft) O-SO 11.7 C 14.2 C
01.09.2001 18:00 14.3 C 91 % 1008.2 hPa 0.0 l/m 3.6 km/h (1 Bft) O-SO 12.9 C 14.3 C
01.09.2001 19:00 14.2 C 90 % 1008.8 hPa 0.0 l/m 1.0 km/h (0 Bft) SO 12.6 C 14.2 C
01.09.2001 20:00 12.8 C 94 % 1008.8 hPa 0.0 l/m 5.6 km/h (1 Bft) O-SO 11.9 C 12.8 C
01.09.2001 21:00 12.8 C 94 % 1009.8 hPa 0.0 l/m 3.6 km/h (1 Bft) O-SO 11.8 C 12.8 C
01.09.2001 22:00 12.3 C 93 % 1010.5 hPa 0.0 l/m 0.0 km/h (0 Bft) N 11.2 C 12.3 C
01.09.2001 23:00 11.6 C 94 % 1010.9 hPa 0.0 l/m 0.0 km/h (0 Bft) N 10.7 C 11.6 C
02.09.2001 00:00 11.7 C 95 % 1010.9 hPa 0.0 l/m 0.0 km/h (0 Bft) N 10.9 C 11.7 C
02.09.2001 01:00 10.4 C 93 % 1010.9 hPa 0.0 l/m 0.0 km/h (0 Bft) N 9.3 C 10.4 C
02.09.2001 02:00 9.8 C 95 % 1010.9 hPa 0.0 l/m 0.5 km/h (0 Bft) O-SO 8.9 C 9.8 C
02.09.2001 03:00 10.4 C 96 % 1010.9 hPa 0.0 l/m 0.0 km/h (0 Bft) N 9.8 C 10.4 C
02.09.2001 04:00 10.2 C 95 % 1010.6 hPa 0.0 l/m 0.0 km/h (0 Bft) N 9.4 C 10.2 C
02.09.2001 05:00 10.0 C 94 % 1009.9 hPa 0.0 l/m 0.0 km/h (0 Bft) N 9.1 C 10.0 C
02.09.2001 06:00 10.0 C 93 % 1010.8 hPa 0.0 l/m 0.5 km/h (0 Bft) W 9.0 C 10.0 C
02.09.2001 07:00 10.3 C 93 % 1010.9 hPa 0.0 l/m 0.5 km/h (0 Bft) W 9.2 C 10.3 C
02.09.2001 08:00 11.0 C 91 % 1011.1 hPa 0.0 l/m 0.0 km/h (0 Bft) N 9.6 C 11.0 C
02.09.2001 09:00 11.9 C 91 % 1011.3 hPa 0.0 l/m 0.4 km/h (0 Bft) O-SO 10.4 C 11.9 C
02.09.2001 10:00 13.6 C 86 % 1010.9 hPa 0.0 l/m 0.4 km/h (0 Bft) O-SO 11.4 C 13.6 C
02.09.2001 11:00 16.0 C 78 % 1010.9 hPa 0.0 l/m 6.1 km/h (2 Bft) O-SO 12.0 C 16.0 C
02.09.2001 12:00 17.7 C 68 % 1010.5 hPa 0.0 l/m 6.0 km/h (2 Bft) O-SO 11.7 C 17.7 C
02.09.2001 13:00 18.0 C 65 % 1009.9 hPa 0.0 l/m 1.3 km/h (1 Bft) W 11.2 C 18.0 C
02.09.2001 14:00 18.1 C 62 % 1009.8 hPa 0.0 l/m 0.9 km/h (0 Bft) W-NW 10.8 C 18.1 C
02.09.2001 15:00 20.7 C 52 % 1008.9 hPa 0.0 l/m 4.3 km/h (1 Bft) W-NW 10.6 C 20.7 C
02.09.2001 16:00 21.3 C 48 % 1008.8 hPa 0.0 l/m 7.6 km/h (2 Bft) W-NW 9.9 C 21.3 C
02.09.2001 17:00 21.4 C 47 % 1008.6 hPa 0.0 l/m 9.1 km/h (2 Bft) W-NW 9.5 C 21.4 C
02.09.2001 18:00 20.1 C 51 % 1008.2 hPa 0.0 l/m 4.5 km/h (1 Bft) W 9.6 C 20.1 C
02.09.2001 19:00 18.1 C 60 % 1008.1 hPa 0.0 l/m 0.4 km/h (0 Bft) W 10.2 C 18.1 C
02.09.2001 20:00 15.1 C 76 % 1008.8 hPa 0.0 l/m 3.7 km/h (1 Bft) O-SO 10.8 C 15.1 C
02.09.2001 21:00 13.0 C 85 % 1009.2 hPa 0.0 l/m 2.0 km/h (1 Bft) O 10.5 C 13.0 C
02.09.2001 22:00 11.8 C 89 % 1009.8 hPa 0.0 l/m 1.1 km/h (0 Bft) O-SO 10.0 C 11.8 C
02.09.2001 23:00 10.9 C 90 % 1009.9 hPa 0.0 l/m 0.6 km/h (0 Bft) O-SO 9.3 C 10.9 C
Min-Datum _ 02.09.01 27.08.01 30.08.01 - 27.08.01 - 29.08.01 02.09.01
_ Min-Zeit 02:15 15:18 16:00 - 00:18 - 08:53 06:18
Minimum _ 9.4 C 36 % 1000.5 hPa - 0.0 km/h (0 Bft) - 7.0 C 8.9 C
Max-Datum _ 27.08.01 30.08.01 02.09.01 30.08.01 30.08.01 - 27.08.01 27.08.01
_ Max-Zeit 15:42 07:35 08:51 17:23 17:17 - 12:30 15:42
Maximum _ 31.6 C 97 % 1011.9 hPa 22.8 l/m 56.0 km/h
O-SO (7 Bft)
- 17.6 C 31.6 C
Durchschnitt _ 17.0 C 77 % 1006.2 hPa #43.8 l/m 3.7 km/h (1 Bft) O-SO 12.4 C 17.0 C

Durchschnitt Minimum Temp.16.2 C
Durchschnitt Maximum Temp.17.8 C
© Kaiko 2001